Du har inga inställningar för hoppväder.nu

Hoppväder.nu

Senast uppdaterat 07:46

UTC-tid

2020-04-08 kl. 05:46


Sol och måne

Solen går upp 5:43 och går ner 20:59 (beräknade cirkatider)
Nästa fullmåne blir om 29 dagar (2020-05-07)

METAR

ESNN (Sundsvall)
(26 minuter sedan)
ESNN 080520Z AUTO 14004KT 9999 NCD M00/M01 Q1016=



ESNK (Kramfors)
(26 minuter sedan)
ESNK 080520Z 10003KT CAVOK M00/M01 Q1014=



ESNO (Örnsköldsvik)
(26 minuter sedan)
ESNO 080520Z AUTO 19009KT 9999 FEW150/// SCT180/// 03/M03 Q1014=



ESNY (Söderhamn)
ESNY NIL=



ESNZ (Östersund)
(26 minuter sedan)
ESNZ 080520Z 22011KT CAVOK 04/M04 Q1012=



TAF

ESNN (Sundsvall)
ESNN



ESNK (Kramfors)
ESNK



ESNO (Örnsköldsvik)
ESNO



ESNY (Söderhamn)
ESNY



ESNZ (Östersund)
(136 minuter sedan)
ESNZ 080330Z 0804/0807 20012KT CAVOK=





Kodnycklar till TAF och METAR






LHP

(Sundsvall är område se42d i Delområde 4)

Översikt

ÖVERSIKT FÖR OMRÅDE se4 UTFÄRDAD 080349

GÄLLANDE DEN 8 APRIL 2020 MELLAN 04 OCH 12 UTC


Väderöversikt

En sydvästlig luftström råder över Norrland och en kallfront rör sig in västerifrån under dagen. I Dala och södra Norrlandfjällen: Först höga eller medelhöga moln. Under dagen byar av regn eller snö och lokalt stratus, i Dalafjällen först från sena eftermiddagen. Sydvästlig tidvis frisk vind. Lapplandsfjällen: Lokalt stratus och tidvis byar av regn eller snö och sydvästlig frisk eller hård vind, i högre terräng lokalt storm.

Sikt under 5 kilometer eller molnbas under 1000 fot
10-12UTC: Hela området utom se42


Måttlig eller svår isbildning
10-12UTC: Hela området utom se42


Måttlig eller svår turbulens
08-12UTC: Hela området utom se44


Delområde 4

PROGNOS FÖR OMRÅDE se42 UTFÄRDAD 080349
GÄLLANDE DEN 8 APRIL 2020 MELLAN 04 OCH 12 UTC

Måttlig eller svår turbulens
04-08UTC: Område se42b,se42e,se42d: Väntas inte förekomma under perioden

04-12UTC: Område se42c,se42a: Väntas inte förekomma under perioden

08-12UTC: Område se42b,se42e,se42d: måttlig turbulens SFC - 3000ft.


Måttlig eller svår isbildning
04-12UTC: I hela området: Väntas inte förekomma under perioden

Sikt/Väder/Moln
04-12UTC: I hela området: Sikt >8km. Molnbas >2000ft.

Molnöversida
04-12UTC: I hela området: Ingen prognos

CB/TCU Moln
04-12UTC: I hela området: Väntas inte förekomma under perioden

Nollgradersisoterm
04-08UTC: Noll grader 3000ft - FL070, Minusgrader SFC - 500ft.
08-12UTC: Noll grader 3000ft - FL070.

Vind vid marken
04-06UTC: Område se42b: S-SV/4-20 knop, byar upp till 25 knop.
Område se42a: S-SV/2-20 knop, byar upp till 24 knop.
Område se42d: SV/0-13 knop, byar upp till 30 knop.
Område se42e: SV/0-14 knop, byar upp till 30 knop.
Område se42c: S-SV/12-21 knop, byar upp till 25 knop.

06-08UTC: Område se42c: SV/14-24 knop, byar upp till 29 knop.
Område se42d: SV-V/1-14 knop, byar upp till 31 knop.
Område se42a: SV/1-22 knop, byar upp till 29 knop.
Område se42e: SV-V/3-15 knop, byar upp till 33 knop.
Område se42b: S-SV/4-22 knop, byar upp till 27 knop.

08-10UTC: Område se42b: S-SV/7-22 knop, byar upp till 28 knop.
Område se42a: SV/6-24 knop, byar upp till 30 knop.
Område se42c: S-SV/14-26 knop, byar upp till 32 knop.
Område se42d: SV-V/4-13 knop, byar upp till 31 knop.
Område se42e: SV-V/4-15 knop, byar upp till 33 knop.

10-12UTC: Område se42e: SV/8-18 knop, byar upp till 34 knop.
Område se42b: SV/8-20 knop, byar upp till 29 knop.
Område se42c: S-SV/14-25 knop, byar upp till 33 knop.
Område se42a: SV/7-22 knop, byar upp till 29 knop.
Område se42d: SV-V/7-14 knop, byar upp till 32 knop.


Genomsnittlig vind och temperatur för området
2000ft:
04-06UTC: 250/34kt +5.
06-08UTC: 250/33kt +5.
08-10UTC: 250/32kt +4.
10-12UTC: 240/31kt +4.

FL50:
04-06UTC: 250/33kt +0.
06-08UTC: 260/33kt +1.
08-10UTC: 270/33kt +1.
10-12UTC: 260/34kt +1.

FL100:
04-06UTC: 260/35kt -8.
06-08UTC: 260/41kt -8.
08-10UTC: 260/44kt -8.
10-12UTC: 260/42kt -9.

Lägsta QNH
1009 hPa.

OBS! endast utbredd måttlig eller svår isbildning och turbulens prognostiseras i LLF.
Avsaknad av isbildning och turbulens i prognosen utesluter inte förekomst av lätt isbildning och turbulens.
För indikation på lätt isbildning, var vänlig kontrollera om prognosen för molntopp ligger högre än nollgradersisotermen.
Förekomst av TCU eller CB medför alltid en risk för måttlig eller svår isbildning och turbulens även om det inte framgår explicit av prognosen.







Spotting

Hur fungerar spotthjälpen och Vindkartan?

Markvind är ca 0-7 m/s med byar på 15 m/s.
Vind på 600 m ca 17 m/s.
Vind på 1500 m ca 17 m/s.
Vind på 3000 m ca 18 m/s.
Feppen flyger ca 18 m/s över marken på finalen.
Du driver ca 810 m bakåt i frifall. (1080 m)
Lämplig spot är 29 sekunder eller 522 m efter gropen.
(44 s eller 792 m)
För små grupper eller ensamhoppare bör man vänta 8-12 sekunder mellan grupperna.
För större grupper bör man vänta 17-20 sekunder mellan grupperna.


Vindkartan

Senast uppdaterad 07:46




All data kommer från LFV.se